KFY1097 SKBO-SVMI
Flight info
| Callsign | KFY1097 |
|---|---|
| Flight time | 1h 43m |
| Altitude | 37000 |
| Route | DANSA4R KOVBU UW1 CUC UW34 LFA UW8 BRM UW5 PBL GATUG ORODI MIQ |
| Aircraft | A20N/M-SDE2E3FGHIRWXY/LB1 |
Departure
| Time | 2026-05-03 22:46 |
|---|---|
| Airport | El Dorado International Airport (SKBO) |
Arrival
| Time | 2026-05-04 00:29 |
|---|---|
| Airport | Maiquetía Simón Bolívar International Airport (SVMI) |
| Time | Latitude | Longitude | Altitude | Speed | Heading |
|---|---|---|---|---|---|
| 2026-05-03 22:30 | 4.69242 | -74.14010 | 8362 ft | 0 kts | 33° |
| 2026-05-03 22:39 | 4.69229 | -74.14019 | 8362 ft | 2 kts | 36° |
| 2026-05-03 22:39 | 4.69215 | -74.14028 | 8362 ft | 2 kts | 38° |
| 2026-05-03 22:40 | 4.69203 | -74.14039 | 8362 ft | 2 kts | 42° |
| 2026-05-03 22:40 | 4.69191 | -74.14050 | 8362 ft | 2 kts | 49° |
| 2026-05-03 22:40 | 4.69181 | -74.14064 | 8362 ft | 2 kts | 65° |
| 2026-05-03 22:40 | 4.69177 | -74.14079 | 8362 ft | 2 kts | 102° |
| 2026-05-03 22:41 | 4.69182 | -74.14091 | 8362 ft | 1 kts | 121° |
| 2026-05-03 22:41 | 4.69183 | -74.14093 | 8362 ft | 0 kts | 122° |
| 2026-05-03 22:42 | 4.69179 | -74.14088 | 8362 ft | 3 kts | 128° |
| 2026-05-03 22:42 | 4.69144 | -74.14077 | 8362 ft | 7 kts | 186° |
| 2026-05-03 22:43 | 4.69096 | -74.14106 | 8362 ft | 9 kts | 216° |
| 2026-05-03 22:43 | 4.69088 | -74.14112 | 8362 ft | 0 kts | 216° |
| 2026-05-03 22:44 | 4.69084 | -74.14115 | 8362 ft | 5 kts | 216° |
| 2026-05-03 22:44 | 4.69018 | -74.14193 | 8362 ft | 19 kts | 262° |
| 2026-05-03 22:45 | 4.69061 | -74.14291 | 8362 ft | 15 kts | 305° |
| 2026-05-03 22:45 | 4.69069 | -74.14301 | 8362 ft | 8 kts | 306° |
| 2026-05-03 22:45 | 4.69248 | -74.14540 | 8360 ft | 76 kts | 307° |
| 2026-05-03 22:45 | 4.69683 | -74.15114 | 8361 ft | 129 kts | 307° |
| 2026-05-03 22:46 | 4.70317 | -74.15950 | 8365 ft | 171 kts | 307° |
| 2026-05-03 22:46 | 4.71075 | -74.16924 | 8759 ft | 185 kts | 307° |
| 2026-05-03 22:46 | 4.71908 | -74.17973 | 9503 ft | 196 kts | 306° |
| 2026-05-03 22:46 | 4.72722 | -74.19068 | 10369 ft | 198 kts | 306° |
| 2026-05-03 22:47 | 4.73442 | -74.20304 | 10742 ft | 218 kts | 288° |
| 2026-05-03 22:47 | 4.73819 | -74.21855 | 10998 ft | 240 kts | 282° |
| 2026-05-03 22:47 | 4.74216 | -74.23564 | 11231 ft | 264 kts | 283° |
| 2026-05-03 22:47 | 4.74567 | -74.25442 | 11526 ft | 283 kts | 274° |
| 2026-05-03 22:48 | 4.74508 | -74.27438 | 12024 ft | 289 kts | 260° |
| 2026-05-03 22:48 | 4.74111 | -74.29436 | 12195 ft | 296 kts | 257° |
| 2026-05-03 22:48 | 4.73696 | -74.31467 | 11984 ft | 293 kts | 257° |
| 2026-05-03 22:48 | 4.73287 | -74.33500 | 11973 ft | 307 kts | 257° |
| 2026-05-03 22:49 | 4.72858 | -74.35634 | 11970 ft | 326 kts | 257° |
| 2026-05-03 22:49 | 4.72389 | -74.37958 | 12036 ft | 353 kts | 258° |
| 2026-05-03 22:49 | 4.71720 | -74.40356 | 12523 ft | 363 kts | 244° |
| 2026-05-03 22:49 | 4.70307 | -74.42438 | 13209 ft | 365 kts | 223° |
| 2026-05-03 22:50 | 4.68251 | -74.43919 | 13915 ft | 366 kts | 202° |
| 2026-05-03 22:50 | 4.65818 | -74.44626 | 14529 ft | 365 kts | 186° |
| 2026-05-03 22:50 | 4.63285 | -74.44963 | 15173 ft | 369 kts | 184° |
| 2026-05-03 22:50 | 4.60721 | -74.45261 | 15811 ft | 373 kts | 183° |
| 2026-05-03 22:51 | 4.58128 | -74.45567 | 16436 ft | 377 kts | 184° |
| 2026-05-03 22:51 | 4.55509 | -74.45894 | 17042 ft | 381 kts | 184° |
| 2026-05-03 22:51 | 4.52896 | -74.46231 | 17575 ft | 386 kts | 184° |
| 2026-05-03 22:51 | 4.50223 | -74.46583 | 17796 ft | 389 kts | 184° |
| 2026-05-03 22:52 | 4.47539 | -74.46941 | 17926 ft | 391 kts | 184° |
| 2026-05-03 22:52 | 4.44833 | -74.47303 | 18468 ft | 394 kts | 184° |
| 2026-05-03 22:52 | 4.42103 | -74.47665 | 19007 ft | 396 kts | 184° |
| 2026-05-03 22:52 | 4.39369 | -74.48026 | 19511 ft | 399 kts | 184° |
| 2026-05-03 22:53 | 4.36601 | -74.48299 | 19979 ft | 400 kts | 176° |
| 2026-05-03 22:53 | 4.33859 | -74.47927 | 20476 ft | 398 kts | 161° |
| 2026-05-03 22:53 | 4.31335 | -74.46836 | 20977 ft | 396 kts | 146° |
| 2026-05-03 22:53 | 4.29200 | -74.45108 | 21482 ft | 395 kts | 130° |
| 2026-05-03 22:54 | 4.28079 | -74.43681 | 21816 ft | 395 kts | 121° |
| 2026-05-03 22:54 | 4.26907 | -74.41205 | 22282 ft | 396 kts | 106° |
| 2026-05-03 22:54 | 4.26351 | -74.38501 | 22729 ft | 399 kts | 98° |
| 2026-05-03 22:54 | 4.25908 | -74.35750 | 23270 ft | 402 kts | 98° |
| 2026-05-03 22:55 | 4.25458 | -74.32966 | 23691 ft | 407 kts | 98° |
| 2026-05-03 22:55 | 4.25002 | -74.30166 | 24075 ft | 410 kts | 99° |
| 2026-05-03 22:55 | 4.24538 | -74.27338 | 24484 ft | 412 kts | 99° |
| 2026-05-03 22:55 | 4.24070 | -74.24499 | 24874 ft | 415 kts | 99° |
| 2026-05-03 22:56 | 4.23600 | -74.21645 | 25249 ft | 417 kts | 99° |
| 2026-05-03 22:56 | 4.23125 | -74.18770 | 25666 ft | 420 kts | 99° |
| 2026-05-03 22:56 | 4.22647 | -74.15871 | 26036 ft | 423 kts | 99° |
| 2026-05-03 22:56 | 4.22166 | -74.12960 | 26412 ft | 426 kts | 99° |
| 2026-05-03 22:57 | 4.21681 | -74.10020 | 26727 ft | 429 kts | 99° |
| 2026-05-03 22:57 | 4.21254 | -74.07067 | 27129 ft | 430 kts | 94° |
| 2026-05-03 22:57 | 4.21344 | -74.04076 | 27474 ft | 433 kts | 82° |
| 2026-05-03 22:57 | 4.22063 | -74.01141 | 27782 ft | 437 kts | 70° |
| 2026-05-03 22:58 | 4.23396 | -73.98396 | 28077 ft | 441 kts | 58° |
| 2026-05-03 22:58 | 4.25290 | -73.95977 | 28412 ft | 445 kts | 46° |
| 2026-05-03 22:58 | 4.27680 | -73.93991 | 28699 ft | 450 kts | 34° |
| 2026-05-03 22:58 | 4.30473 | -73.92547 | 28989 ft | 455 kts | 22° |
| 2026-05-03 22:59 | 4.33538 | -73.91707 | 29270 ft | 459 kts | 12° |
| 2026-05-03 22:59 | 4.36684 | -73.91103 | 29569 ft | 462 kts | 12° |
| 2026-05-03 22:59 | 4.39849 | -73.90504 | 29885 ft | 464 kts | 12° |
| 2026-05-03 22:59 | 4.43033 | -73.89898 | 30094 ft | 469 kts | 12° |
| 2026-05-03 23:00 | 4.46204 | -73.89289 | 30351 ft | 471 kts | 13° |
| 2026-05-03 23:00 | 4.49473 | -73.88680 | 30628 ft | 473 kts | 9° |
| 2026-05-03 23:00 | 4.52701 | -73.88402 | 30883 ft | 477 kts | 2° |
| 2026-05-03 23:00 | 4.56014 | -73.88545 | 31197 ft | 479 kts | 355° |
| 2026-05-03 23:01 | 4.59346 | -73.89120 | 31500 ft | 482 kts | 349° |
| 2026-05-03 23:01 | 4.62611 | -73.89866 | 31805 ft | 482 kts | 349° |
| 2026-05-03 23:01 | 4.65831 | -73.90591 | 32267 ft | 479 kts | 349° |
| 2026-05-03 23:01 | 4.69077 | -73.91321 | 32625 ft | 478 kts | 349° |
| 2026-05-03 23:02 | 4.72306 | -73.92045 | 33009 ft | 476 kts | 349° |
| 2026-05-03 23:02 | 4.75531 | -73.92768 | 33406 ft | 474 kts | 348° |
| 2026-05-03 23:02 | 4.78743 | -73.93488 | 33666 ft | 476 kts | 348° |
| 2026-05-03 23:02 | 4.81966 | -73.94210 | 34029 ft | 474 kts | 348° |
| 2026-05-03 23:03 | 4.85184 | -73.94932 | 34356 ft | 473 kts | 348° |
| 2026-05-03 23:03 | 4.88385 | -73.95650 | 34621 ft | 473 kts | 349° |
| 2026-05-03 23:03 | 4.91584 | -73.96368 | 34970 ft | 470 kts | 348° |
| 2026-05-03 23:03 | 4.94777 | -73.97087 | 35210 ft | 471 kts | 349° |
| 2026-05-03 23:04 | 4.97977 | -73.97746 | 35479 ft | 469 kts | 353° |
| 2026-05-03 23:04 | 5.01211 | -73.98015 | 35745 ft | 466 kts | 1° |
| 2026-05-03 23:04 | 5.04427 | -73.97845 | 35999 ft | 464 kts | 9° |
| 2026-05-03 23:04 | 5.07582 | -73.97244 | 36276 ft | 461 kts | 16° |
| 2026-05-03 23:05 | 5.10684 | -73.96459 | 36575 ft | 460 kts | 16° |
| 2026-05-03 23:05 | 5.13784 | -73.95684 | 36826 ft | 459 kts | 15° |
| 2026-05-03 23:05 | 5.16867 | -73.94917 | 37124 ft | 458 kts | 15° |
| 2026-05-03 23:05 | 5.19965 | -73.94147 | 37229 ft | 459 kts | 15° |
| 2026-05-03 23:06 | 5.23085 | -73.93371 | 37233 ft | 465 kts | 15° |
| 2026-05-03 23:06 | 5.29389 | -73.91802 | 37238 ft | 475 kts | 15° |
| 2026-05-03 23:07 | 5.35833 | -73.90196 | 37239 ft | 479 kts | 15° |
| 2026-05-03 23:07 | 5.42305 | -73.88584 | 37205 ft | 478 kts | 15° |
| 2026-05-03 23:08 | 5.48769 | -73.86972 | 37194 ft | 479 kts | 15° |
| 2026-05-03 23:08 | 5.55025 | -73.84727 | 37202 ft | 478 kts | 26° |
| 2026-05-03 23:09 | 5.60852 | -73.81541 | 37170 ft | 477 kts | 30° |
| 2026-05-03 23:09 | 5.66636 | -73.78271 | 37190 ft | 477 kts | 30° |
| 2026-05-03 23:10 | 5.72412 | -73.75007 | 37157 ft | 477 kts | 30° |
| 2026-05-03 23:10 | 5.78188 | -73.71738 | 37159 ft | 477 kts | 30° |
| 2026-05-03 23:11 | 5.83966 | -73.68467 | 37162 ft | 477 kts | 30° |
| 2026-05-03 23:11 | 5.89754 | -73.65189 | 37127 ft | 478 kts | 30° |
| 2026-05-03 23:12 | 5.95572 | -73.61893 | 37136 ft | 480 kts | 30° |
| 2026-05-03 23:12 | 6.01387 | -73.58598 | 37096 ft | 480 kts | 30° |
| 2026-05-03 23:13 | 6.07193 | -73.55308 | 37095 ft | 480 kts | 30° |
| 2026-05-03 23:13 | 6.12969 | -73.52033 | 37097 ft | 480 kts | 30° |
| 2026-05-03 23:14 | 6.18781 | -73.48737 | 37067 ft | 480 kts | 30° |
| 2026-05-03 23:14 | 6.24557 | -73.45462 | 37066 ft | 476 kts | 30° |
| 2026-05-03 23:15 | 6.30324 | -73.42190 | 37035 ft | 477 kts | 30° |
| 2026-05-03 23:15 | 6.36097 | -73.38913 | 37034 ft | 476 kts | 30° |
| 2026-05-03 23:16 | 6.41844 | -73.35651 | 37022 ft | 476 kts | 31° |
| 2026-05-03 23:16 | 6.47617 | -73.32373 | 37020 ft | 476 kts | 30° |
| 2026-05-03 23:17 | 6.53394 | -73.29091 | 37020 ft | 478 kts | 30° |
| 2026-05-03 23:17 | 6.59201 | -73.25791 | 36996 ft | 479 kts | 30° |
| 2026-05-03 23:18 | 6.64962 | -73.22519 | 37007 ft | 479 kts | 30° |
| 2026-05-03 23:18 | 6.70757 | -73.19227 | 36994 ft | 479 kts | 30° |
| 2026-05-03 23:19 | 6.76547 | -73.15935 | 36995 ft | 478 kts | 30° |
| 2026-05-03 23:19 | 6.82328 | -73.12647 | 36995 ft | 478 kts | 30° |
| 2026-05-03 23:20 | 6.88125 | -73.09349 | 36990 ft | 479 kts | 30° |
| 2026-05-03 23:20 | 6.93907 | -73.06136 | 37028 ft | 479 kts | 29° |
| 2026-05-03 23:21 | 6.99648 | -73.03000 | 37040 ft | 479 kts | 29° |
| 2026-05-03 23:21 | 7.05296 | -72.99902 | 37039 ft | 479 kts | 29° |
| 2026-05-03 23:22 | 7.14065 | -72.95078 | 37083 ft | 479 kts | 29° |
| 2026-05-03 23:22 | 7.19873 | -72.91879 | 37083 ft | 475 kts | 28° |
| 2026-05-03 23:23 | 7.25633 | -72.88709 | 37081 ft | 475 kts | 28° |
| 2026-05-03 23:23 | 7.31432 | -72.85518 | 37085 ft | 475 kts | 29° |
| 2026-05-03 23:24 | 7.37245 | -72.82314 | 37083 ft | 476 kts | 29° |
| 2026-05-03 23:24 | 7.43054 | -72.79113 | 37086 ft | 476 kts | 29° |
| 2026-05-03 23:25 | 7.48859 | -72.75913 | 37086 ft | 476 kts | 29° |
| 2026-05-03 23:25 | 7.54663 | -72.72713 | 37055 ft | 476 kts | 29° |
| 2026-05-03 23:26 | 7.60464 | -72.69513 | 37059 ft | 475 kts | 29° |
| 2026-05-03 23:26 | 7.66294 | -72.66296 | 37052 ft | 479 kts | 29° |
| 2026-05-03 23:27 | 7.72132 | -72.63075 | 37015 ft | 478 kts | 29° |
| 2026-05-03 23:27 | 7.77967 | -72.59854 | 37016 ft | 478 kts | 30° |
| 2026-05-03 23:28 | 7.83777 | -72.56649 | 36943 ft | 476 kts | 30° |
| 2026-05-03 23:28 | 7.89586 | -72.53439 | 36939 ft | 476 kts | 30° |
| 2026-05-03 23:29 | 7.95157 | -72.49936 | 36939 ft | 474 kts | 38° |
| 2026-05-03 23:29 | 8.00366 | -72.45807 | 36939 ft | 480 kts | 38° |
| 2026-05-03 23:30 | 8.05632 | -72.41657 | 36942 ft | 480 kts | 38° |
| 2026-05-03 23:30 | 8.10884 | -72.37513 | 36943 ft | 480 kts | 38° |
| 2026-05-03 23:31 | 8.16135 | -72.33364 | 36945 ft | 480 kts | 38° |
| 2026-05-03 23:31 | 8.21363 | -72.29179 | 36946 ft | 479 kts | 41° |
| 2026-05-03 23:32 | 8.25967 | -72.24332 | 36943 ft | 479 kts | 52° |
| 2026-05-03 23:32 | 8.29720 | -72.19027 | 36944 ft | 479 kts | 55° |
| 2026-05-03 23:33 | 8.33558 | -72.13509 | 36946 ft | 482 kts | 55° |
| 2026-05-03 23:33 | 8.37406 | -72.07978 | 36940 ft | 481 kts | 55° |
| 2026-05-03 23:34 | 8.41244 | -72.02455 | 36935 ft | 481 kts | 55° |
| 2026-05-03 23:34 | 8.45087 | -71.96920 | 36961 ft | 481 kts | 55° |
| 2026-05-03 23:35 | 8.48925 | -71.91390 | 36960 ft | 481 kts | 55° |
| 2026-05-03 23:35 | 8.52775 | -71.85840 | 36921 ft | 483 kts | 55° |
| 2026-05-03 23:36 | 8.56605 | -71.80317 | 36947 ft | 483 kts | 55° |
| 2026-05-03 23:36 | 8.60459 | -71.74758 | 36947 ft | 483 kts | 54° |
| 2026-05-03 23:37 | 8.64308 | -71.69203 | 36945 ft | 482 kts | 55° |
| 2026-05-03 23:37 | 8.68143 | -71.63666 | 36942 ft | 481 kts | 55° |
| 2026-05-03 23:38 | 8.71983 | -71.58120 | 36944 ft | 481 kts | 55° |
| 2026-05-03 23:38 | 8.75835 | -71.52556 | 36989 ft | 485 kts | 55° |
| 2026-05-03 23:39 | 8.79713 | -71.46949 | 36957 ft | 486 kts | 55° |
| 2026-05-03 23:39 | 8.82965 | -71.42245 | 36959 ft | 486 kts | 55° |
| 2026-05-03 23:40 | 8.86815 | -71.36676 | 36959 ft | 487 kts | 55° |
| 2026-05-03 23:40 | 8.90692 | -71.31063 | 36924 ft | 487 kts | 55° |
| 2026-05-03 23:41 | 8.94571 | -71.25444 | 36965 ft | 487 kts | 55° |
| 2026-05-03 23:41 | 8.98429 | -71.19853 | 36965 ft | 480 kts | 55° |
| 2026-05-03 23:42 | 9.02235 | -71.14335 | 37019 ft | 480 kts | 55° |
| 2026-05-03 23:42 | 9.06052 | -71.08798 | 36963 ft | 480 kts | 55° |
| 2026-05-03 23:43 | 9.09870 | -71.03258 | 36960 ft | 480 kts | 55° |
| 2026-05-03 23:43 | 9.13066 | -70.98619 | 36998 ft | 480 kts | 55° |
| 2026-05-03 23:44 | 9.16879 | -70.93081 | 36942 ft | 480 kts | 55° |
| 2026-05-03 23:44 | 9.20663 | -70.87585 | 36970 ft | 480 kts | 55° |
| 2026-05-03 23:45 | 9.24503 | -70.82006 | 36970 ft | 486 kts | 56° |
| 2026-05-03 23:45 | 9.28369 | -70.76385 | 36970 ft | 486 kts | 56° |
| 2026-05-03 23:46 | 9.32214 | -70.70795 | 36954 ft | 481 kts | 55° |
| 2026-05-03 23:46 | 9.36043 | -70.65226 | 36952 ft | 483 kts | 56° |
| 2026-05-03 23:47 | 9.39874 | -70.59650 | 36979 ft | 482 kts | 56° |
| 2026-05-03 23:47 | 9.43480 | -70.53938 | 36950 ft | 482 kts | 63° |
| 2026-05-03 23:48 | 9.46583 | -70.47870 | 36951 ft | 487 kts | 63° |
| 2026-05-03 23:48 | 9.49707 | -70.41801 | 36981 ft | 486 kts | 63° |
| 2026-05-03 23:49 | 9.52832 | -70.35726 | 36981 ft | 486 kts | 63° |
| 2026-05-03 23:49 | 9.55950 | -70.29657 | 36985 ft | 486 kts | 63° |
| 2026-05-03 23:50 | 9.59047 | -70.23625 | 36985 ft | 486 kts | 63° |
| 2026-05-03 23:50 | 9.62162 | -70.17552 | 37004 ft | 485 kts | 62° |
| 2026-05-03 23:51 | 9.65266 | -70.11498 | 37005 ft | 484 kts | 62° |
| 2026-05-03 23:51 | 9.68370 | -70.05441 | 36987 ft | 484 kts | 62° |
| 2026-05-03 23:52 | 9.71473 | -69.99386 | 36988 ft | 485 kts | 62° |
| 2026-05-03 23:52 | 9.74578 | -69.93322 | 36988 ft | 484 kts | 62° |
| 2026-05-03 23:53 | 9.77674 | -69.87273 | 36993 ft | 484 kts | 62° |
| 2026-05-03 23:53 | 9.80769 | -69.81217 | 36964 ft | 484 kts | 62° |
| 2026-05-03 23:54 | 9.83866 | -69.75160 | 36971 ft | 484 kts | 62° |
| 2026-05-03 23:54 | 9.86963 | -69.69100 | 36971 ft | 484 kts | 62° |
| 2026-05-03 23:55 | 9.90058 | -69.63039 | 36977 ft | 484 kts | 62° |
| 2026-05-03 23:55 | 9.93133 | -69.57013 | 36963 ft | 485 kts | 62° |
| 2026-05-03 23:56 | 9.96235 | -69.50933 | 36969 ft | 486 kts | 62° |
| 2026-05-03 23:56 | 9.99343 | -69.44839 | 36969 ft | 486 kts | 62° |
| 2026-05-03 23:57 | 10.02510 | -69.38796 | 36964 ft | 485 kts | 58° |
| 2026-05-03 23:57 | 10.06509 | -69.33338 | 36963 ft | 484 kts | 47° |
| 2026-05-03 23:58 | 10.11368 | -69.28609 | 36965 ft | 484 kts | 41° |
| 2026-05-03 23:58 | 10.16331 | -69.24003 | 36966 ft | 484 kts | 41° |
| 2026-05-03 23:59 | 10.18789 | -69.21718 | 36962 ft | 473 kts | 41° |
| 2026-05-03 23:59 | 10.21173 | -69.19500 | 36964 ft | 458 kts | 41° |
| 2026-05-03 23:59 | 10.25865 | -69.15140 | 36966 ft | 462 kts | 41° |
| 2026-05-04 00:00 | 10.30400 | -69.10523 | 36969 ft | 462 kts | 53° |
| 2026-05-04 00:00 | 10.33354 | -69.04741 | 36971 ft | 464 kts | 73° |
| 2026-05-04 00:01 | 10.34554 | -68.98308 | 36968 ft | 464 kts | 81° |
| 2026-05-04 00:01 | 10.35042 | -68.95131 | 36610 ft | 460 kts | 81° |
| 2026-05-04 00:01 | 10.35541 | -68.91916 | 35590 ft | 464 kts | 81° |
| 2026-05-04 00:02 | 10.36047 | -68.88651 | 34234 ft | 473 kts | 81° |
| 2026-05-04 00:02 | 10.36564 | -68.85309 | 32788 ft | 482 kts | 82° |
| 2026-05-04 00:02 | 10.37078 | -68.81976 | 32097 ft | 471 kts | 82° |
| 2026-05-04 00:02 | 10.37573 | -68.78766 | 31863 ft | 450 kts | 82° |
| 2026-05-04 00:03 | 10.38046 | -68.75696 | 31602 ft | 432 kts | 82° |
| 2026-05-04 00:03 | 10.38506 | -68.72705 | 30854 ft | 428 kts | 82° |
| 2026-05-04 00:03 | 10.38965 | -68.69714 | 29921 ft | 430 kts | 82° |
| 2026-05-04 00:03 | 10.39423 | -68.66731 | 29187 ft | 423 kts | 81° |
| 2026-05-04 00:04 | 10.39871 | -68.63804 | 28491 ft | 416 kts | 81° |
| 2026-05-04 00:04 | 10.40315 | -68.60912 | 27694 ft | 413 kts | 81° |
| 2026-05-04 00:04 | 10.40755 | -68.58037 | 26892 ft | 410 kts | 81° |
| 2026-05-04 00:04 | 10.41191 | -68.55191 | 26195 ft | 405 kts | 81° |
| 2026-05-04 00:05 | 10.41621 | -68.52380 | 25521 ft | 400 kts | 80° |
| 2026-05-04 00:05 | 10.42046 | -68.49599 | 24826 ft | 397 kts | 80° |
| 2026-05-04 00:05 | 10.42466 | -68.46848 | 24194 ft | 392 kts | 80° |
| 2026-05-04 00:05 | 10.42881 | -68.44129 | 23552 ft | 387 kts | 80° |
| 2026-05-04 00:06 | 10.43290 | -68.41446 | 22857 ft | 381 kts | 80° |
| 2026-05-04 00:06 | 10.43696 | -68.38793 | 22327 ft | 379 kts | 80° |
| 2026-05-04 00:06 | 10.44098 | -68.36164 | 21931 ft | 373 kts | 80° |
| 2026-05-04 00:06 | 10.44491 | -68.33594 | 21594 ft | 365 kts | 81° |
| 2026-05-04 00:07 | 10.44877 | -68.31071 | 21161 ft | 358 kts | 81° |
| 2026-05-04 00:07 | 10.45256 | -68.28593 | 20514 ft | 353 kts | 81° |
| 2026-05-04 00:07 | 10.45630 | -68.26143 | 19892 ft | 348 kts | 81° |
| 2026-05-04 00:07 | 10.45997 | -68.23744 | 19390 ft | 340 kts | 82° |
| 2026-05-04 00:08 | 10.46359 | -68.21372 | 18970 ft | 340 kts | 82° |
| 2026-05-04 00:08 | 10.46718 | -68.19017 | 18612 ft | 333 kts | 82° |
| 2026-05-04 00:08 | 10.47065 | -68.16733 | 17964 ft | 330 kts | 82° |
| 2026-05-04 00:08 | 10.47413 | -68.14448 | 17508 ft | 327 kts | 82° |
| 2026-05-04 00:09 | 10.47760 | -68.12160 | 17059 ft | 328 kts | 82° |
| 2026-05-04 00:09 | 10.48106 | -68.09879 | 16600 ft | 326 kts | 82° |
| 2026-05-04 00:09 | 10.48581 | -68.07636 | 16146 ft | 324 kts | 75° |
| 2026-05-04 00:09 | 10.49314 | -68.05478 | 15707 ft | 323 kts | 69° |
| 2026-05-04 00:10 | 10.50156 | -68.03372 | 15251 ft | 321 kts | 70° |
| 2026-05-04 00:10 | 10.50983 | -68.01271 | 14798 ft | 319 kts | 70° |
| 2026-05-04 00:10 | 10.51800 | -67.99184 | 14361 ft | 317 kts | 70° |
| 2026-05-04 00:10 | 10.52608 | -67.97119 | 14034 ft | 311 kts | 70° |
| 2026-05-04 00:11 | 10.53401 | -67.95093 | 13447 ft | 307 kts | 70° |
| 2026-05-04 00:11 | 10.54183 | -67.93090 | 13034 ft | 308 kts | 70° |
| 2026-05-04 00:11 | 10.54978 | -67.91056 | 12602 ft | 310 kts | 70° |
| 2026-05-04 00:11 | 10.55768 | -67.89036 | 12227 ft | 306 kts | 69° |
| 2026-05-04 00:12 | 10.56579 | -67.86962 | 11802 ft | 335 kts | 69° |
| 2026-05-04 00:12 | 10.57472 | -67.84672 | 11314 ft | 358 kts | 69° |
| 2026-05-04 00:12 | 10.58403 | -67.82290 | 10873 ft | 363 kts | 69° |
| 2026-05-04 00:12 | 10.59316 | -67.79960 | 10668 ft | 344 kts | 69° |
| 2026-05-04 00:13 | 10.60173 | -67.77771 | 10473 ft | 323 kts | 69° |
| 2026-05-04 00:13 | 10.60975 | -67.75722 | 10290 ft | 302 kts | 69° |
| 2026-05-04 00:13 | 10.61729 | -67.73793 | 9988 ft | 289 kts | 69° |
| 2026-05-04 00:13 | 10.62463 | -67.71911 | 9581 ft | 284 kts | 69° |
| 2026-05-04 00:14 | 10.63181 | -67.70072 | 9390 ft | 279 kts | 69° |
| 2026-05-04 00:14 | 10.63900 | -67.68231 | 9049 ft | 280 kts | 69° |
| 2026-05-04 00:14 | 10.64618 | -67.66393 | 8701 ft | 278 kts | 69° |
| 2026-05-04 00:14 | 10.65329 | -67.64573 | 8345 ft | 276 kts | 69° |
| 2026-05-04 00:15 | 10.66032 | -67.62771 | 7993 ft | 273 kts | 69° |
| 2026-05-04 00:15 | 10.66728 | -67.60987 | 7646 ft | 271 kts | 70° |
| 2026-05-04 00:15 | 10.67421 | -67.59213 | 7298 ft | 269 kts | 70° |
| 2026-05-04 00:15 | 10.67915 | -67.57416 | 6955 ft | 259 kts | 83° |
| 2026-05-04 00:16 | 10.67962 | -67.55627 | 6635 ft | 249 kts | 97° |
| 2026-05-04 00:16 | 10.67749 | -67.53920 | 6309 ft | 240 kts | 98° |
| 2026-05-04 00:16 | 10.67555 | -67.52260 | 5957 ft | 232 kts | 98° |
| 2026-05-04 00:16 | 10.67377 | -67.50674 | 5696 ft | 225 kts | 98° |
| 2026-05-04 00:17 | 10.67206 | -67.49134 | 5490 ft | 215 kts | 97° |
| 2026-05-04 00:17 | 10.67037 | -67.47632 | 5140 ft | 210 kts | 97° |
| 2026-05-04 00:17 | 10.66873 | -67.46193 | 5092 ft | 199 kts | 97° |
| 2026-05-04 00:17 | 10.66724 | -67.44872 | 5028 ft | 176 kts | 97° |
| 2026-05-04 00:18 | 10.66591 | -67.43688 | 5038 ft | 169 kts | 97° |
| 2026-05-04 00:18 | 10.66454 | -67.42484 | 5029 ft | 172 kts | 97° |
| 2026-05-04 00:18 | 10.66317 | -67.41278 | 5029 ft | 171 kts | 97° |
| 2026-05-04 00:18 | 10.66170 | -67.40080 | 5048 ft | 172 kts | 101° |
| 2026-05-04 00:19 | 10.65823 | -67.38915 | 4979 ft | 171 kts | 114° |
| 2026-05-04 00:19 | 10.65285 | -67.37855 | 4720 ft | 169 kts | 119° |
| 2026-05-04 00:19 | 10.64706 | -67.36816 | 4430 ft | 166 kts | 118° |
| 2026-05-04 00:19 | 10.64157 | -67.35783 | 4206 ft | 169 kts | 117° |
| 2026-05-04 00:20 | 10.63635 | -67.34730 | 4049 ft | 161 kts | 115° |
| 2026-05-04 00:20 | 10.63179 | -67.33760 | 4039 ft | 148 kts | 114° |
| 2026-05-04 00:20 | 10.62733 | -67.32790 | 4038 ft | 155 kts | 114° |
| 2026-05-04 00:20 | 10.62282 | -67.31798 | 4034 ft | 153 kts | 114° |
| 2026-05-04 00:21 | 10.61839 | -67.30825 | 4037 ft | 150 kts | 114° |
| 2026-05-04 00:21 | 10.61409 | -67.29882 | 4035 ft | 148 kts | 114° |
| 2026-05-04 00:21 | 10.60974 | -67.28927 | 4034 ft | 148 kts | 114° |
| 2026-05-04 00:21 | 10.60545 | -67.27990 | 4037 ft | 146 kts | 113° |
| 2026-05-04 00:22 | 10.60119 | -67.27054 | 4035 ft | 148 kts | 114° |
| 2026-05-04 00:22 | 10.59769 | -67.26074 | 4036 ft | 145 kts | 103° |
| 2026-05-04 00:22 | 10.59636 | -67.25061 | 3942 ft | 143 kts | 93° |
| 2026-05-04 00:22 | 10.59630 | -67.24074 | 3868 ft | 139 kts | 88° |
| 2026-05-04 00:23 | 10.59662 | -67.23090 | 3812 ft | 140 kts | 88° |
| 2026-05-04 00:23 | 10.59694 | -67.22120 | 3744 ft | 135 kts | 88° |
| 2026-05-04 00:23 | 10.59724 | -67.21173 | 3740 ft | 138 kts | 88° |
| 2026-05-04 00:23 | 10.59756 | -67.20205 | 3683 ft | 134 kts | 88° |
| 2026-05-04 00:24 | 10.59787 | -67.19264 | 3586 ft | 136 kts | 88° |
| 2026-05-04 00:24 | 10.59818 | -67.18312 | 3455 ft | 133 kts | 88° |
| 2026-05-04 00:24 | 10.59849 | -67.17369 | 3312 ft | 133 kts | 89° |
| 2026-05-04 00:24 | 10.59879 | -67.16440 | 3147 ft | 131 kts | 89° |
| 2026-05-04 00:25 | 10.59910 | -67.15499 | 2982 ft | 132 kts | 89° |
| 2026-05-04 00:25 | 10.59940 | -67.14568 | 2796 ft | 134 kts | 89° |
| 2026-05-04 00:25 | 10.59971 | -67.13619 | 2610 ft | 134 kts | 89° |
| 2026-05-04 00:25 | 10.60002 | -67.12684 | 2427 ft | 133 kts | 89° |
| 2026-05-04 00:26 | 10.60032 | -67.11756 | 2245 ft | 131 kts | 89° |
| 2026-05-04 00:26 | 10.60062 | -67.10835 | 2075 ft | 132 kts | 88° |
| 2026-05-04 00:26 | 10.60093 | -67.09908 | 1902 ft | 131 kts | 88° |
| 2026-05-04 00:26 | 10.60123 | -67.08978 | 1728 ft | 132 kts | 88° |
| 2026-05-04 00:27 | 10.60153 | -67.08055 | 1554 ft | 129 kts | 88° |
| 2026-05-04 00:27 | 10.60183 | -67.07140 | 1382 ft | 129 kts | 88° |
| 2026-05-04 00:27 | 10.60212 | -67.06231 | 1211 ft | 130 kts | 88° |
| 2026-05-04 00:27 | 10.60242 | -67.05315 | 1044 ft | 130 kts | 88° |
| 2026-05-04 00:28 | 10.60272 | -67.04411 | 888 ft | 127 kts | 88° |
| 2026-05-04 00:28 | 10.60304 | -67.03508 | 727 ft | 128 kts | 88° |
| 2026-05-04 00:28 | 10.60331 | -67.02625 | 564 ft | 125 kts | 88° |
| 2026-05-04 00:28 | 10.60358 | -67.01734 | 432 ft | 125 kts | 88° |
| 2026-05-04 00:29 | 10.60387 | -67.00863 | 251 ft | 124 kts | 87° |
| 2026-05-04 00:29 | 10.60417 | -67.00038 | 199 ft | 95 kts | 88° |
| 2026-05-04 00:29 | 10.60430 | -66.99610 | 197 ft | 53 kts | 89° |
| 2026-05-04 00:29 | 10.60443 | -66.99258 | 185 ft | 41 kts | 88° |
| 2026-05-04 00:30 | 10.60417 | -66.99131 | 182 ft | 10 kts | 147° |
| 2026-05-04 00:30 | 10.60338 | -66.99120 | 174 ft | 0 kts | 178° |
| 2026-05-04 00:31 | 10.60318 | -66.99120 | 172 ft | 9 kts | 178° |
| 2026-05-04 00:31 | 10.60229 | -66.99119 | 170 ft | 13 kts | 177° |
| 2026-05-04 00:31 | 10.60201 | -66.99116 | 171 ft | 0 kts | 171° |
| 2026-05-04 00:33 | 10.60199 | -66.99116 | 172 ft | 0 kts | 171° |
| 2026-05-04 00:33 | 10.60189 | -66.99114 | 172 ft | 1 kts | 171° |
| 2026-05-04 00:33 | 10.60181 | -66.99113 | 173 ft | 1 kts | 171° |
| 2026-05-04 00:34 | 10.60172 | -66.99111 | 173 ft | 1 kts | 171° |
| 2026-05-04 00:34 | 10.60163 | -66.99110 | 174 ft | 0 kts | 171° |
| 2026-05-04 00:34 | 10.60114 | -66.99098 | 176 ft | 12 kts | 166° |
| 2026-05-04 00:35 | 10.60015 | -66.99073 | 177 ft | 17 kts | 166° |
| 2026-05-04 00:35 | 10.59903 | -66.99072 | 178 ft | 15 kts | 225° |
| 2026-05-04 00:35 | 10.59869 | -66.99185 | 176 ft | 19 kts | 256° |
| 2026-05-04 00:35 | 10.59834 | -66.99329 | 174 ft | 21 kts | 256° |
| 2026-05-04 00:36 | 10.59794 | -66.99486 | 172 ft | 24 kts | 258° |
| 2026-05-04 00:36 | 10.59812 | -66.99631 | 168 ft | 21 kts | 275° |
| 2026-05-04 00:36 | 10.59854 | -66.99733 | 167 ft | 13 kts | 352° |
| 2026-05-04 00:36 | 10.59889 | -66.99702 | 168 ft | 7 kts | 60° |
| 2026-05-04 00:37 | 10.59958 | -66.99670 | 170 ft | 20 kts | 6° |
| 2026-05-04 00:37 | 10.60105 | -66.99677 | 181 ft | 18 kts | 332° |
| 2026-05-04 00:37 | 10.60135 | -66.99774 | 196 ft | 16 kts | 267° |
| 2026-05-04 00:37 | 10.60132 | -66.99881 | 190 ft | 15 kts | 264° |
| 2026-05-04 00:38 | 10.60119 | -66.99996 | 190 ft | 17 kts | 267° |
| 2026-05-04 00:38 | 10.60114 | -67.00122 | 198 ft | 19 kts | 269° |
| 2026-05-04 00:38 | 10.60110 | -67.00253 | 202 ft | 17 kts | 259° |
| 2026-05-04 00:38 | 10.60033 | -67.00307 | 205 ft | 14 kts | 196° |
| 2026-05-04 00:39 | 10.59998 | -67.00390 | 197 ft | 14 kts | 265° |
| 2026-05-04 00:39 | 10.59996 | -67.00494 | 200 ft | 16 kts | 267° |
| 2026-05-04 00:39 | 10.59992 | -67.00612 | 212 ft | 18 kts | 268° |
| 2026-05-04 00:39 | 10.59981 | -67.00717 | 208 ft | 12 kts | 242° |
| 2026-05-04 00:40 | 10.59901 | -67.00738 | 207 ft | 14 kts | 179° |
| 2026-05-04 00:40 | 10.59828 | -67.00736 | 208 ft | 5 kts | 179° |
| 2026-05-04 00:40 | 10.59805 | -67.00735 | 213 ft | 0 kts | 178° |